Portada
METAR-TAF:

METAR-TAF

Aeroports :

Aeroport de Sant Sebastià

Sant Sebastià, Espanya

latitud: 43-21N, longitud: 001-48W, altitud: 5 m

Observació

L'informe es va fer fa 6 hores i 39 minuts, a les 05:00 UTC
Vent 2 kt amb direcció variable
Temperatura 19°C
Humitat 88%
Pressió 1019 hPa
Visibilitat 10 km o més
Cel ennuvolat a una alçada de 2200 ft

METAR: LESO 210500Z VRB02KT 9999 BKN022 19/17 Q1019

Hora: 13:39 (11:39 UTC)

Pronòstic

L'informe es va fer fa 6 hores i 39 minuts, a les 05:00 UTC
Pronòstic vàlid del 21 a les 06 UTC al 22 a les 06 UTC
Vent 9 kt del Oest/Nord-Oest
Visibilitat 10 km o més
Núvols disperses a una alçada de 2000 ft
Probabilitat 30% :
Temporalment
l' 21 a les 06 UTC al 21 a les 07 UTC
Visibilitat: 3000 m
Cel ennuvolat a una alçada de 1000 ft
boirina

TAF: LESO 210500Z 2106/2206 29009KT 9999 SCT020 TX27/2114Z TN20/2206Z PROB30 TEMPO 2106/2107 3000 BR BKN010

Observacions i pronòstics meteorològics de més de 4000 aeroports (METAR i TAF).

Les estacions disponibles són els punts grocs i vermells al mapa.

Posi el ratolí al punt desitjat per veure el nom de l'estació.

Feu clic per veure les observacions i els pronòstics meteorològics.

Per canviar el mapa: feu clic els botons verds amb una creu de color negre per apropar; al botó verd amb un guió per allunyar la imatge; o en les fletxes verdes per a mapes adjacents.


METAR-TAF: